createdAt,value
2019-03-01T00:01:28.687Z,20.67
2019-03-01T00:04:29.971Z,19.50
2019-03-01T00:07:57.750Z,19.07
2019-03-01T00:11:07.151Z,20.77
2019-03-01T00:14:24.420Z,18.87
2019-03-01T00:17:54.103Z,19.60
2019-03-01T00:20:51.643Z,19.43
2019-03-01T00:23:54.899Z,19.30
2019-03-01T00:27:20.787Z,20.13
2019-03-01T00:30:45.663Z,19.63
2019-03-01T00:34:05.243Z,18.73
2019-03-01T00:37:22.142Z,19.67
2019-03-01T00:40:43.708Z,19.90
2019-03-01T00:44:11.007Z,20.77
2019-03-01T00:46:58.750Z,20.50
2019-03-01T00:49:47.072Z,20.20
2019-03-01T00:52:35.171Z,21.10
2019-03-01T00:55:23.891Z,19.37
2019-03-01T00:58:12.154Z,20.10
2019-03-01T01:01:00.503Z,20.57
2019-03-01T01:03:49.163Z,21.20
2019-03-01T01:06:36.965Z,21.10
2019-03-01T01:09:24.748Z,21.60
2019-03-01T01:12:13.347Z,21.77
2019-03-01T01:15:01.078Z,22.63
2019-03-01T01:17:49.018Z,22.60
2019-03-01T01:20:37.638Z,24.13
2019-03-01T01:23:25.623Z,21.57
2019-03-01T01:26:14.209Z,23.40
2019-03-01T01:29:02.824Z,23.43
2019-03-01T01:31:50.838Z,24.20
2019-03-01T01:34:38.771Z,23.87
2019-03-01T01:37:27.326Z,22.80
2019-03-01T01:40:15.185Z,23.90
2019-03-01T01:43:03.439Z,22.70
2019-03-01T01:45:51.844Z,22.10
2019-03-01T01:48:40.391Z,22.20
2019-03-01T01:51:28.803Z,22.87
2019-03-01T01:54:17.525Z,23.93
2019-03-01T01:57:05.655Z,23.50
2019-03-01T01:59:53.214Z,26.13
2019-03-01T02:02:41.680Z,25.73
2019-03-01T02:05:30.295Z,27.77
2019-03-01T02:08:18.343Z,26.67
2019-03-01T02:11:06.408Z,28.27
2019-03-01T02:13:54.426Z,27.63
2019-03-01T02:16:43.037Z,30.37
2019-03-01T02:19:30.610Z,32.50
2019-03-01T02:22:18.683Z,31.67
2019-03-01T02:25:08.504Z,31.73
2019-03-01T02:27:56.790Z,30.00
2019-03-01T02:30:45.666Z,33.57
2019-03-01T02:33:34.058Z,33.83
2019-03-01T02:36:21.791Z,33.07
2019-03-01T02:39:10.163Z,34.77
2019-03-01T02:41:58.531Z,33.30
2019-03-01T02:44:46.547Z,36.43
2019-03-01T02:47:34.436Z,36.10
2019-03-01T02:50:22.534Z,36.27
2019-03-01T02:53:11.311Z,35.03
2019-03-01T02:55:59.802Z,37.10
2019-03-01T02:58:47.976Z,36.53
2019-03-01T03:01:36.252Z,36.43
2019-03-01T03:04:24.708Z,36.30
2019-03-01T03:07:21.079Z,37.17
2019-03-01T03:10:09.107Z,35.60
2019-03-01T03:13:02.667Z,35.00
2019-03-01T03:15:52.812Z,32.77
2019-03-01T03:18:40.876Z,35.33
2019-03-01T03:21:29.170Z,33.10
2019-03-01T03:24:16.708Z,32.70
2019-03-01T03:27:04.792Z,34.30
2019-03-01T03:29:53.343Z,35.37
2019-03-01T03:32:41.114Z,34.57
2019-03-01T03:35:29.088Z,35.17
2019-03-01T03:38:17.628Z,36.70
2019-03-01T03:41:06.369Z,36.40
2019-03-01T03:43:54.568Z,37.60
2019-03-01T03:46:42.052Z,37.57
2019-03-01T03:49:30.340Z,36.57
2019-03-01T03:52:18.931Z,35.77
2019-03-01T03:55:08.528Z,35.33
2019-03-01T03:57:56.184Z,35.30
2019-03-01T04:00:43.913Z,38.67
2019-03-01T04:03:32.313Z,40.57
2019-03-01T04:06:20.546Z,40.40
2019-03-01T04:09:09.082Z,38.10
2019-03-01T04:11:57.148Z,36.67
2019-03-01T04:14:45.688Z,37.20
2019-03-01T04:17:33.426Z,35.20
2019-03-01T04:20:21.633Z,35.70
2019-03-01T04:23:10.091Z,34.47
2019-03-01T04:25:57.659Z,35.57
2019-03-01T04:28:45.979Z,36.90
2019-03-01T04:31:33.775Z,36.07
2019-03-01T04:34:22.216Z,34.83
2019-03-01T04:37:09.783Z,35.47
2019-03-01T04:39:58.075Z,39.53
2019-03-01T04:42:46.019Z,37.27
2019-03-01T04:45:33.753Z,36.50
2019-03-01T04:48:22.083Z,37.33
2019-03-01T04:51:10.520Z,37.83
2019-03-01T04:53:58.544Z,38.83
2019-03-01T04:56:47.175Z,36.40
2019-03-01T04:59:34.892Z,37.33
2019-03-01T05:02:23.072Z,37.53
2019-03-01T05:05:11.532Z,37.27
2019-03-01T05:07:59.484Z,39.90
2019-03-01T05:10:47.663Z,38.60
2019-03-01T05:13:35.847Z,38.20
2019-03-01T05:16:24.407Z,41.17
2019-03-01T05:19:12.580Z,40.80
2019-03-01T05:22:00.584Z,38.33
2019-03-01T05:24:49.136Z,42.53
2019-03-01T05:27:37.790Z,42.50
2019-03-01T05:30:26.255Z,42.57
2019-03-01T05:33:14.751Z,42.50
2019-03-01T05:36:02.790Z,44.07
2019-03-01T05:38:51.275Z,43.57
2019-03-01T05:41:39.650Z,42.43
2019-03-01T05:44:28.221Z,42.67
2019-03-01T05:47:15.690Z,42.47
2019-03-01T05:50:06.993Z,40.37
2019-03-01T05:52:54.145Z,44.40
2019-03-01T05:55:41.723Z,42.27
2019-03-01T05:58:38.667Z,43.27
2019-03-01T06:01:31.103Z,42.83
2019-03-01T06:04:32.092Z,42.40
2019-03-01T06:08:03.460Z,42.40
2019-03-01T06:11:12.956Z,45.77
2019-03-01T06:14:27.206Z,43.93
2019-03-01T06:17:50.244Z,43.10
2019-03-01T06:21:02.246Z,44.37
2019-03-01T06:24:12.692Z,44.27
2019-03-01T06:27:33.616Z,46.17
2019-03-01T06:30:33.536Z,44.40
2019-03-01T06:34:01.474Z,42.57
2019-03-01T06:37:24.618Z,40.63
2019-03-01T06:40:50.450Z,46.23
2019-03-01T06:43:52.667Z,43.60
2019-03-01T06:46:58.950Z,43.37
2019-03-01T06:49:58.080Z,41.57
2019-03-01T06:52:46.804Z,43.17
2019-03-01T06:56:02.568Z,41.17
2019-03-01T06:58:52.935Z,40.23
2019-03-01T07:01:47.551Z,39.70
2019-03-01T07:04:35.732Z,39.40
2019-03-01T07:07:24.115Z,38.60
2019-03-01T07:10:14.157Z,39.50
2019-03-01T07:13:01.684Z,37.73
2019-03-01T07:15:49.859Z,40.13
2019-03-01T07:18:37.769Z,37.47
2019-03-01T07:21:25.468Z,39.10
2019-03-01T07:24:14.098Z,43.27
2019-03-01T07:27:02.435Z,46.20
2019-03-01T07:29:50.558Z,48.83
2019-03-01T07:32:38.508Z,49.70
2019-03-01T07:35:26.991Z,53.00
2019-03-01T07:38:15.146Z,49.17
2019-03-01T07:41:03.772Z,52.67
2019-03-01T07:43:51.558Z,48.70
2019-03-01T07:46:39.671Z,48.77
2019-03-01T07:49:27.949Z,51.90
2019-03-01T07:52:16.225Z,46.03
2019-03-01T07:55:05.220Z,45.73
2019-03-01T07:57:53.087Z,46.10
2019-03-01T08:00:41.442Z,43.53
2019-03-01T08:03:29.495Z,46.30
2019-03-01T08:06:17.093Z,47.03
2019-03-01T08:09:12.792Z,48.00
2019-03-01T08:12:03.668Z,51.57
2019-03-01T08:14:50.047Z,51.83
2019-03-01T08:17:38.486Z,55.07
2019-03-01T08:20:26.524Z,54.27
2019-03-01T08:23:14.515Z,59.83
2019-03-01T08:26:03.617Z,65.47
2019-03-01T08:28:54.746Z,71.53
2019-03-01T08:31:41.831Z,77.50
2019-03-01T08:34:29.388Z,75.10
2019-03-01T08:37:17.565Z,79.27
2019-03-01T08:40:11.497Z,74.10
2019-03-01T08:42:59.168Z,82.97
2019-03-01T08:45:48.105Z,85.30
2019-03-01T08:48:35.951Z,87.97
2019-03-01T08:51:26.586Z,83.57
2019-03-01T08:54:14.468Z,88.30
2019-03-01T08:57:02.927Z,87.53
2019-03-01T08:59:50.815Z,90.80
2019-03-01T09:02:39.077Z,92.60
2019-03-01T09:05:27.301Z,92.97
2019-03-01T09:08:15.646Z,93.37
2019-03-01T09:11:05.535Z,94.37
2019-03-01T09:13:53.713Z,98.40
2019-03-01T09:16:42.452Z,91.93
2019-03-01T09:19:30.943Z,93.60
2019-03-01T09:22:19.411Z,95.57
2019-03-01T09:25:08.846Z,94.80
2019-03-01T09:27:57.664Z,97.70
2019-03-01T09:30:46.258Z,96.30
2019-03-01T09:33:33.859Z,96.63
2019-03-01T09:36:29.739Z,98.33
2019-03-01T09:39:19.025Z,99.00
2019-03-01T09:42:07.530Z,96.07
2019-03-01T09:44:55.158Z,97.63
2019-03-01T09:47:43.341Z,97.47
2019-03-01T09:50:34.646Z,95.00
2019-03-01T09:53:21.716Z,95.00
2019-03-01T09:56:12.966Z,97.47
2019-03-01T09:59:00.451Z,93.53
2019-03-01T10:01:48.063Z,95.50
2019-03-01T10:04:36.036Z,90.07
2019-03-01T10:07:23.989Z,92.30
2019-03-01T10:10:13.159Z,84.77
2019-03-01T10:13:01.659Z,89.80
2019-03-01T10:15:49.360Z,87.93
2019-03-01T10:18:37.640Z,87.67
2019-03-01T10:21:26.368Z,88.57
2019-03-01T10:24:14.173Z,85.77
2019-03-01T10:27:03.106Z,81.17
2019-03-01T10:29:51.161Z,80.27
2019-03-01T10:32:39.449Z,82.87
2019-03-01T10:35:27.613Z,82.70
2019-03-01T10:38:16.027Z,82.50
2019-03-01T10:41:04.603Z,79.50
2019-03-01T10:43:53.099Z,73.70
2019-03-01T10:46:40.725Z,74.40
2019-03-01T10:49:29.051Z,76.83
2019-03-01T10:52:16.720Z,76.43
2019-03-01T10:55:04.834Z,78.60
2019-03-01T10:57:52.763Z,72.73
2019-03-01T11:00:41.434Z,75.27
2019-03-01T11:03:29.023Z,73.60
2019-03-01T11:06:17.395Z,73.60
2019-03-01T11:09:07.447Z,73.97
2019-03-01T11:11:55.936Z,72.13
2019-03-01T11:14:44.457Z,69.30
2019-03-01T11:17:32.528Z,66.27
2019-03-01T11:20:20.711Z,69.53
2019-03-01T11:23:09.023Z,66.83
2019-03-01T11:25:57.171Z,62.90
2019-03-01T11:28:45.639Z,58.10
2019-03-01T11:31:33.863Z,59.57
2019-03-01T11:34:22.042Z,57.27
2019-03-01T11:37:10.067Z,52.20
2019-03-01T11:39:58.667Z,51.20
2019-03-01T11:42:46.794Z,52.47
2019-03-01T11:45:34.698Z,53.37
2019-03-01T11:48:23.144Z,50.10
2019-03-01T11:51:11.724Z,49.80
2019-03-01T11:54:00.260Z,49.40
2019-03-01T11:56:48.319Z,50.10
2019-03-01T11:59:36.499Z,43.90
2019-03-01T12:02:25.155Z,39.53
2019-03-01T12:05:13.463Z,31.23
2019-03-01T12:08:01.699Z,34.60
2019-03-01T12:10:49.642Z,34.33
2019-03-01T12:13:37.939Z,35.30
2019-03-01T12:16:26.369Z,31.60
2019-03-01T12:19:14.837Z,28.50
2019-03-01T12:22:03.083Z,29.57
2019-03-01T12:24:50.707Z,31.23
2019-03-01T12:27:39.054Z,30.13
2019-03-01T12:30:27.608Z,25.07
2019-03-01T12:33:15.159Z,25.63
2019-03-01T12:36:03.767Z,22.07
2019-03-01T12:38:52.303Z,21.57
2019-03-01T12:41:40.582Z,19.20
2019-03-01T12:44:28.501Z,19.10
2019-03-01T12:47:16.687Z,18.00
2019-03-01T12:50:05.663Z,17.33
2019-03-01T12:52:54.172Z,18.03
2019-03-01T12:55:42.570Z,20.07
2019-03-01T12:58:30.778Z,21.50
2019-03-01T13:01:18.710Z,21.73
2019-03-01T13:04:07.139Z,20.27
2019-03-01T13:06:55.044Z,22.27
2019-03-01T13:09:42.959Z,20.50
2019-03-01T13:12:31.126Z,24.17
2019-03-01T13:15:19.370Z,23.60
2019-03-01T13:18:10.323Z,24.93
2019-03-01T13:20:57.561Z,22.07
2019-03-01T13:23:46.016Z,20.00
2019-03-01T13:26:34.384Z,22.63
2019-03-01T13:29:23.314Z,22.80
2019-03-01T13:32:11.664Z,20.97
2019-03-01T13:35:00.038Z,20.03
2019-03-01T13:37:48.075Z,22.00
2019-03-01T13:40:35.871Z,22.20
2019-03-01T13:43:27.395Z,19.30
2019-03-01T13:46:13.691Z,18.50
2019-03-01T13:49:01.863Z,18.00
2019-03-01T13:51:52.971Z,16.47
2019-03-01T13:54:42.370Z,17.23
2019-03-01T13:57:29.170Z,16.50
2019-03-01T14:00:18.347Z,15.80
2019-03-01T14:03:06.280Z,14.47
2019-03-01T14:05:54.701Z,16.40
2019-03-01T14:08:44.415Z,15.97
2019-03-01T14:11:32.706Z,15.53
2019-03-01T14:14:26.588Z,15.10
2019-03-01T14:17:10.275Z,15.50
2019-03-01T14:19:58.870Z,16.40
2019-03-01T14:22:47.946Z,17.07
2019-03-01T14:25:38.606Z,17.60
2019-03-01T14:28:26.608Z,18.50
2019-03-01T14:31:14.999Z,18.03
2019-03-01T14:34:02.515Z,19.23
2019-03-01T14:36:50.992Z,22.57
2019-03-01T14:39:41.723Z,35.53
2019-03-01T14:42:28.792Z,18.67
2019-03-01T14:45:19.271Z,18.00
2019-03-01T14:48:08.673Z,18.40
2019-03-01T14:50:56.355Z,17.10
2019-03-01T14:53:44.866Z,18.23
2019-03-01T14:56:36.828Z,18.67
2019-03-01T14:59:54.066Z,20.10
2019-03-01T15:02:56.099Z,21.30
2019-03-01T15:05:44.187Z,22.37
2019-03-01T15:08:31.879Z,20.50
2019-03-01T15:11:21.766Z,19.80
2019-03-01T15:14:13.411Z,21.30
2019-03-01T15:16:59.775Z,20.77
2019-03-01T15:19:47.898Z,21.37
2019-03-01T15:22:36.653Z,20.23
2019-03-01T15:25:24.774Z,21.13
2019-03-01T15:28:13.212Z,20.37
2019-03-01T15:31:01.384Z,21.77
2019-03-01T15:33:49.706Z,22.83
2019-03-01T15:36:37.716Z,22.40
2019-03-01T15:39:25.874Z,21.07
2019-03-01T15:42:17.432Z,23.77
2019-03-01T15:45:05.039Z,24.57
2019-03-01T15:47:53.429Z,20.40
2019-03-01T15:50:41.740Z,22.00
2019-03-01T15:53:29.864Z,21.33
2019-03-01T15:56:18.219Z,19.70
2019-03-01T15:59:09.669Z,22.57
2019-03-01T16:01:56.291Z,22.27
2019-03-01T16:04:44.885Z,21.27
2019-03-01T16:07:33.481Z,20.73
2019-03-01T16:10:22.352Z,19.90
2019-03-01T16:13:12.204Z,19.90
2019-03-01T16:16:00.715Z,19.23
2019-03-01T16:18:48.925Z,16.53
2019-03-01T16:21:39.788Z,17.53
2019-03-01T16:24:26.508Z,14.90
2019-03-01T16:27:15.332Z,16.83
2019-03-01T16:30:04.123Z,15.87
2019-03-01T16:32:52.547Z,15.80
2019-03-01T16:35:40.990Z,15.40
2019-03-01T16:38:29.450Z,13.90
2019-03-01T16:41:17.346Z,14.63
2019-03-01T16:44:06.989Z,12.80
2019-03-01T16:46:55.084Z,12.17
2019-03-01T16:49:43.318Z,11.67
2019-03-01T16:52:31.199Z,13.53
2019-03-01T16:55:19.280Z,12.20
2019-03-01T16:58:07.453Z,11.20
2019-03-01T17:00:55.658Z,10.40
2019-03-01T17:03:44.148Z,10.53
2019-03-01T17:06:32.311Z,10.20
2019-03-01T17:09:21.194Z,9.40
2019-03-01T17:12:08.983Z,9.53
2019-03-01T17:14:57.779Z,9.07
2019-03-01T17:17:46.416Z,8.80
2019-03-01T17:20:37.661Z,7.97
2019-03-01T17:23:24.722Z,8.67
2019-03-01T17:26:12.727Z,7.77
2019-03-01T17:29:03.087Z,7.50
2019-03-01T17:31:50.627Z,8.27
2019-03-01T17:34:38.836Z,8.37
2019-03-01T17:37:28.845Z,7.73
2019-03-01T17:40:17.387Z,7.73
2019-03-01T17:43:05.231Z,8.40
2019-03-01T17:45:54.386Z,8.40
2019-03-01T17:48:43.101Z,9.50
2019-03-01T17:51:31.460Z,9.37
2019-03-01T17:54:22.229Z,10.27
2019-03-01T17:57:09.571Z,8.30
2019-03-01T17:59:57.982Z,9.43
2019-03-01T18:02:48.658Z,8.97
2019-03-01T18:05:37.058Z,8.83
2019-03-01T18:08:25.506Z,8.00
2019-03-01T18:11:13.500Z,9.83
2019-03-01T18:14:02.203Z,7.30
2019-03-01T18:16:49.802Z,7.17
2019-03-01T18:19:38.336Z,8.13
2019-03-01T18:22:27.561Z,7.80
2019-03-01T18:25:16.408Z,6.73
2019-03-01T18:28:05.287Z,6.70
2019-03-01T18:30:56.192Z,6.70
2019-03-01T18:33:43.452Z,7.33
2019-03-01T18:36:32.464Z,7.80
2019-03-01T18:39:19.986Z,8.70
2019-03-01T18:42:08.104Z,9.10
2019-03-01T18:44:56.259Z,7.40
2019-03-01T18:47:44.418Z,7.00
2019-03-01T18:50:32.731Z,6.37
2019-03-01T18:53:25.056Z,6.33
2019-03-01T18:56:12.315Z,5.83
2019-03-01T18:59:00.987Z,5.40
2019-03-01T19:01:49.387Z,6.33
2019-03-01T19:04:37.815Z,5.33
2019-03-01T19:07:27.494Z,6.73
2019-03-01T19:10:16.135Z,8.13
2019-03-01T19:13:05.103Z,7.40
2019-03-01T19:15:54.502Z,7.37
2019-03-01T19:18:43.447Z,8.13
2019-03-01T19:21:31.178Z,6.40
2019-03-01T19:24:19.155Z,6.60
2019-03-01T19:27:09.308Z,5.90
2019-03-01T19:29:57.091Z,5.80
2019-03-01T19:32:45.534Z,5.60
2019-03-01T19:35:33.767Z,5.33
2019-03-01T19:38:25.179Z,5.70
2019-03-01T19:41:11.778Z,4.80
2019-03-01T19:44:00.299Z,5.30
2019-03-01T19:46:51.384Z,5.30
2019-03-01T19:49:38.623Z,4.20
2019-03-01T19:52:26.887Z,4.80
2019-03-01T19:55:14.875Z,4.90
2019-03-01T19:58:03.446Z,4.93
2019-03-01T20:00:51.407Z,4.00
2019-03-01T20:03:42.559Z,3.37
2019-03-01T20:06:29.560Z,4.77
2019-03-01T20:09:17.842Z,11.50
2019-03-01T20:12:05.645Z,4.37
2019-03-01T20:14:53.823Z,3.47
2019-03-01T20:17:44.619Z,4.70
2019-03-01T20:20:33.353Z,4.50
2019-03-01T20:23:22.395Z,4.30
2019-03-01T20:26:10.804Z,4.73
2019-03-01T20:28:58.750Z,4.63
2019-03-01T20:31:47.059Z,4.17
2019-03-01T20:34:37.948Z,5.10
2019-03-01T20:37:27.591Z,5.60
2019-03-01T20:40:14.783Z,5.30
2019-03-01T20:43:06.667Z,4.70
2019-03-01T20:45:52.190Z,6.13
2019-03-01T20:48:40.191Z,4.93
2019-03-01T20:51:28.869Z,5.70
2019-03-01T20:54:17.159Z,4.90
2019-03-01T20:57:05.405Z,5.50
2019-03-01T20:59:53.794Z,5.87
2019-03-01T21:02:42.078Z,5.40
2019-03-01T21:05:30.559Z,5.70
2019-03-01T21:08:18.422Z,6.83
2019-03-01T21:11:06.838Z,7.70
2019-03-01T21:13:55.055Z,7.63
2019-03-01T21:16:44.891Z,9.03
2019-03-01T21:19:32.258Z,10.07
2019-03-01T21:22:20.223Z,10.17
2019-03-01T21:25:09.763Z,9.60
2019-03-01T21:28:00.915Z,11.20
2019-03-01T21:30:48.039Z,12.33
2019-03-01T21:33:36.702Z,9.63
2019-03-01T21:36:26.249Z,10.23
2019-03-01T21:39:14.119Z,10.53
2019-03-01T21:42:02.497Z,10.47
2019-03-01T21:44:50.630Z,11.30
2019-03-01T21:47:39.003Z,10.70
2019-03-01T21:50:27.267Z,11.40
2019-03-01T21:53:15.531Z,12.27
2019-03-01T21:56:04.619Z,11.50
2019-03-01T21:58:53.267Z,11.83
2019-03-01T22:01:42.417Z,13.10
2019-03-01T22:04:30.127Z,14.23
2019-03-01T22:07:18.207Z,14.63
2019-03-01T22:10:07.291Z,14.27
2019-03-01T22:12:56.814Z,14.80
2019-03-01T22:15:44.406Z,14.20
2019-03-01T22:18:32.632Z,14.20
2019-03-01T22:21:22.848Z,15.90
2019-03-01T22:24:11.287Z,15.67
2019-03-01T22:26:59.539Z,16.77
2019-03-01T22:29:48.481Z,17.27
2019-03-01T22:32:37.022Z,18.00
2019-03-01T22:35:25.292Z,19.57
2019-03-01T22:38:13.794Z,18.67
2019-03-01T22:41:03.943Z,19.47
2019-03-01T22:43:51.030Z,19.83
2019-03-01T22:46:38.867Z,23.17
2019-03-01T22:49:28.641Z,24.20
2019-03-01T22:52:17.119Z,25.37
2019-03-01T22:55:06.036Z,26.43
2019-03-01T22:57:57.690Z,27.57
2019-03-01T23:01:17.864Z,28.60
2019-03-01T23:04:06.727Z,29.10
2019-03-01T23:06:54.611Z,26.70
2019-03-01T23:09:46.397Z,28.07
2019-03-01T23:12:32.495Z,26.43
2019-03-01T23:15:20.101Z,27.50
2019-03-01T23:18:08.185Z,27.63
2019-03-01T23:20:57.706Z,26.37
2019-03-01T23:23:46.111Z,27.60
2019-03-01T23:26:34.553Z,26.47
2019-03-01T23:29:22.319Z,27.40
2019-03-01T23:32:11.894Z,27.37
2019-03-01T23:35:00.094Z,27.37
2019-03-01T23:37:48.519Z,28.27
2019-03-01T23:40:36.911Z,36.87
2019-03-01T23:43:27.586Z,25.90
2019-03-01T23:46:15.023Z,27.20
2019-03-01T23:49:06.482Z,29.10
2019-03-01T23:51:53.703Z,26.97
2019-03-01T23:54:44.232Z,25.97
2019-03-01T23:57:31.974Z,26.40
